createdAt,value
2017-10-29T00:00:28.701Z,0
2017-10-29T00:01:09.223Z,0
2017-10-29T00:01:49.763Z,0
2017-10-29T00:02:30.293Z,0
2017-10-29T00:03:10.823Z,0
2017-10-29T00:03:51.352Z,0
2017-10-29T00:04:31.892Z,0
2017-10-29T00:05:12.429Z,0
2017-10-29T00:05:52.969Z,0
2017-10-29T00:06:33.498Z,0
2017-10-29T00:07:14.039Z,0
2017-10-29T00:07:54.567Z,0
2017-10-29T00:08:35.107Z,0
2017-10-29T00:09:15.641Z,0
2017-10-29T00:09:56.182Z,0
2017-10-29T00:10:36.719Z,0
2017-10-29T00:11:17.250Z,0
2017-10-29T00:11:57.780Z,0
2017-10-29T00:12:38.323Z,0
2017-10-29T00:13:18.848Z,0
2017-10-29T00:13:59.377Z,0
2017-10-29T00:14:39.911Z,0
2017-10-29T00:15:20.445Z,0
2017-10-29T00:16:00.978Z,0
2017-10-29T00:16:41.515Z,0
2017-10-29T00:17:22.058Z,0
2017-10-29T00:18:02.602Z,0
2017-10-29T00:18:43.126Z,0
2017-10-29T00:19:23.657Z,0
2017-10-29T00:20:04.197Z,0
2017-10-29T00:20:44.727Z,0
2017-10-29T00:21:25.267Z,0
2017-10-29T00:22:05.814Z,0
2017-10-29T00:22:46.353Z,0
2017-10-29T00:23:26.921Z,0
2017-10-29T00:24:07.468Z,0
2017-10-29T00:24:48.005Z,0
2017-10-29T00:25:28.546Z,0
2017-10-29T00:26:09.083Z,0
2017-10-29T00:26:49.623Z,0
2017-10-29T00:27:30.147Z,0
2017-10-29T00:28:10.682Z,0
2017-10-29T00:28:51.220Z,0
2017-10-29T00:29:31.762Z,0
2017-10-29T00:30:12.299Z,0
2017-10-29T00:30:52.837Z,0
2017-10-29T00:31:33.369Z,0
2017-10-29T00:32:13.901Z,0
2017-10-29T00:32:54.432Z,0
2017-10-29T00:33:34.965Z,0
2017-10-29T00:34:15.494Z,0
2017-10-29T00:34:56.034Z,0
2017-10-29T00:35:36.568Z,0
2017-10-29T00:36:17.096Z,0
2017-10-29T00:36:57.630Z,0
2017-10-29T00:37:38.175Z,0
2017-10-29T00:38:18.772Z,0
2017-10-29T00:38:59.314Z,0
2017-10-29T00:39:39.840Z,0
2017-10-29T00:40:20.379Z,0
2017-10-29T00:41:00.928Z,0
2017-10-29T00:41:41.451Z,0
2017-10-29T00:42:21.996Z,0
2017-10-29T00:43:02.529Z,0
2017-10-29T00:43:43.062Z,0
2017-10-29T00:44:23.602Z,0
2017-10-29T00:45:04.139Z,0
2017-10-29T00:45:44.678Z,0
2017-10-29T00:46:25.210Z,0
2017-10-29T00:47:05.752Z,0
2017-10-29T00:47:46.280Z,0
2017-10-29T00:48:26.826Z,0
2017-10-29T00:49:07.361Z,0
2017-10-29T00:49:47.899Z,0
2017-10-29T00:50:28.437Z,0
2017-10-29T00:51:08.970Z,0
2017-10-29T00:51:49.511Z,0
2017-10-29T00:52:30.045Z,0
2017-10-29T00:53:10.588Z,0
2017-10-29T00:53:51.123Z,0
2017-10-29T00:54:31.685Z,0
2017-10-29T00:55:12.209Z,0
2017-10-29T00:55:52.738Z,0
2017-10-29T00:56:33.281Z,0
2017-10-29T00:57:13.813Z,0
2017-10-29T00:57:54.333Z,0
2017-10-29T00:58:34.868Z,0
2017-10-29T00:59:15.404Z,0
2017-10-29T00:59:55.946Z,0
2017-10-29T01:00:36.486Z,0
2017-10-29T01:01:17.026Z,0
2017-10-29T01:01:57.564Z,0
2017-10-29T01:02:38.100Z,0
2017-10-29T01:03:18.650Z,0
2017-10-29T01:03:59.180Z,0
2017-10-29T01:04:39.718Z,0
2017-10-29T01:05:20.262Z,0
2017-10-29T01:06:00.800Z,0
2017-10-29T01:06:41.342Z,0
2017-10-29T01:07:21.880Z,0
2017-10-29T01:08:02.415Z,0
2017-10-29T01:08:42.941Z,0
2017-10-29T01:09:23.480Z,0
2017-10-29T01:10:04.057Z,0
2017-10-29T01:10:44.605Z,0
2017-10-29T01:11:25.201Z,0
2017-10-29T01:12:05.761Z,0
2017-10-29T01:12:46.314Z,0
2017-10-29T01:13:26.848Z,0
2017-10-29T01:14:07.384Z,0
2017-10-29T01:14:47.928Z,0
2017-10-29T01:15:28.462Z,0
2017-10-29T01:16:08.987Z,0
2017-10-29T01:16:49.522Z,0
2017-10-29T01:17:30.066Z,0
2017-10-29T01:18:10.602Z,0
2017-10-29T01:18:51.136Z,0
2017-10-29T01:19:31.670Z,0
2017-10-29T01:20:12.200Z,0
2017-10-29T01:20:52.748Z,0
2017-10-29T01:21:33.278Z,0
2017-10-29T01:22:13.820Z,0
2017-10-29T01:22:54.357Z,0
2017-10-29T01:23:34.887Z,0
2017-10-29T01:24:15.419Z,0
2017-10-29T01:24:55.964Z,0
2017-10-29T01:25:36.493Z,0
2017-10-29T01:26:17.027Z,0
2017-10-29T01:26:57.572Z,0
2017-10-29T01:27:38.111Z,0
2017-10-29T01:28:18.649Z,0
2017-10-29T01:28:59.185Z,0
2017-10-29T01:29:39.722Z,0
2017-10-29T01:30:20.333Z,0
2017-10-29T01:31:00.871Z,0
2017-10-29T01:31:41.408Z,0
2017-10-29T01:32:21.941Z,0
2017-10-29T01:33:02.473Z,0
2017-10-29T01:35:39.390Z,0
2017-10-29T01:36:19.927Z,0
2017-10-29T01:37:00.456Z,0
2017-10-29T01:37:40.994Z,0
2017-10-29T01:38:21.525Z,0
2017-10-29T01:39:02.061Z,0
2017-10-29T01:39:42.597Z,0
2017-10-29T01:40:23.139Z,0
2017-10-29T01:41:03.674Z,0
2017-10-29T01:41:44.220Z,0
2017-10-29T01:42:24.756Z,0
2017-10-29T01:43:05.276Z,0
2017-10-29T01:43:45.816Z,0
2017-10-29T01:44:26.356Z,0
2017-10-29T01:45:06.894Z,0
2017-10-29T01:45:47.423Z,0
2017-10-29T01:46:27.973Z,0
2017-10-29T01:47:08.510Z,0
2017-10-29T01:47:49.047Z,0
2017-10-29T01:48:29.582Z,0
2017-10-29T01:49:10.121Z,0
2017-10-29T01:49:50.650Z,0
2017-10-29T01:50:31.191Z,0
2017-10-29T01:51:11.723Z,0
2017-10-29T01:51:52.264Z,0
2017-10-29T01:52:32.805Z,0
2017-10-29T01:53:13.345Z,0
2017-10-29T01:53:53.883Z,0
2017-10-29T01:54:34.423Z,0
2017-10-29T01:55:14.965Z,0
2017-10-29T01:55:55.500Z,0
2017-10-29T01:56:36.038Z,0
2017-10-29T01:57:16.577Z,0
2017-10-29T01:57:57.110Z,0
2017-10-29T01:58:37.649Z,0
2017-10-29T01:59:18.187Z,0
2017-10-29T01:59:58.715Z,0
2017-10-29T02:00:39.277Z,0
2017-10-29T02:01:19.820Z,0
2017-10-29T02:02:00.346Z,0
2017-10-29T02:02:40.889Z,0
2017-10-29T02:03:21.425Z,0
2017-10-29T02:04:01.959Z,0
2017-10-29T02:04:42.498Z,0
2017-10-29T02:05:23.029Z,0
2017-10-29T02:06:03.563Z,0
2017-10-29T02:06:44.098Z,0
2017-10-29T02:07:24.629Z,0
2017-10-29T02:08:05.167Z,0
2017-10-29T02:08:45.703Z,0
2017-10-29T02:09:26.242Z,0
2017-10-29T02:10:06.782Z,0
2017-10-29T02:10:47.321Z,0
2017-10-29T02:11:27.846Z,0
2017-10-29T02:12:08.382Z,0
2017-10-29T02:12:48.914Z,0
2017-10-29T02:13:29.444Z,0
2017-10-29T02:14:09.991Z,0
2017-10-29T02:14:50.526Z,0
2017-10-29T02:15:31.070Z,0
2017-10-29T02:16:11.610Z,0
2017-10-29T02:16:52.139Z,0
2017-10-29T02:17:32.653Z,0
2017-10-29T02:18:13.193Z,0
2017-10-29T02:18:53.733Z,0
2017-10-29T02:19:34.259Z,0
2017-10-29T02:20:14.794Z,0
2017-10-29T02:20:55.325Z,0
2017-10-29T02:21:35.861Z,0
2017-10-29T02:22:16.404Z,0
2017-10-29T02:22:56.935Z,0
2017-10-29T02:23:37.472Z,0
2017-10-29T02:24:18.003Z,0
2017-10-29T02:24:58.536Z,0
2017-10-29T02:25:39.073Z,0
2017-10-29T02:26:19.605Z,0
2017-10-29T02:27:00.144Z,0
2017-10-29T02:27:40.685Z,0
2017-10-29T02:28:21.218Z,0
2017-10-29T02:29:01.752Z,0
2017-10-29T02:29:42.296Z,0
2017-10-29T02:30:22.826Z,0
2017-10-29T02:31:03.364Z,0
2017-10-29T02:31:43.906Z,0
2017-10-29T02:32:24.441Z,0
2017-10-29T02:33:04.974Z,0
2017-10-29T02:33:45.501Z,0
2017-10-29T02:34:26.035Z,0
2017-10-29T02:35:06.569Z,0
2017-10-29T02:35:47.106Z,0
2017-10-29T02:36:27.706Z,0
2017-10-29T02:37:08.232Z,0
2017-10-29T02:37:48.771Z,0
2017-10-29T02:38:29.305Z,0
2017-10-29T02:39:09.849Z,0
2017-10-29T02:39:50.382Z,0
2017-10-29T02:40:30.928Z,0
2017-10-29T02:41:11.461Z,0
2017-10-29T02:41:52.003Z,0
2017-10-29T02:42:32.530Z,0
2017-10-29T02:43:13.065Z,0
2017-10-29T02:43:53.607Z,0
2017-10-29T02:44:34.148Z,0
2017-10-29T02:45:14.684Z,0
2017-10-29T02:45:55.216Z,0
2017-10-29T02:46:35.752Z,0
2017-10-29T02:47:16.279Z,0
2017-10-29T02:47:56.826Z,0
2017-10-29T02:48:37.371Z,0
2017-10-29T02:49:17.907Z,0
2017-10-29T02:49:58.452Z,0
2017-10-29T02:50:38.987Z,0
2017-10-29T02:51:19.530Z,0
2017-10-29T02:52:00.066Z,0
2017-10-29T02:52:40.597Z,0
2017-10-29T02:53:21.134Z,0
2017-10-29T02:54:01.677Z,0
2017-10-29T02:54:42.212Z,0
2017-10-29T02:55:22.742Z,0
2017-10-29T02:56:03.291Z,0
2017-10-29T02:56:43.823Z,0
2017-10-29T02:57:24.358Z,0
2017-10-29T02:58:04.893Z,0
2017-10-29T02:58:45.418Z,0
2017-10-29T02:59:25.957Z,0
2017-10-29T03:00:06.481Z,0
2017-10-29T03:00:47.028Z,0
2017-10-29T03:01:27.580Z,0
2017-10-29T03:02:08.109Z,0
2017-10-29T03:02:48.639Z,0
2017-10-29T03:03:29.183Z,0
2017-10-29T03:04:09.719Z,0
2017-10-29T03:04:50.253Z,0
2017-10-29T03:05:30.777Z,0
2017-10-29T03:06:11.286Z,0
2017-10-29T03:06:51.823Z,0
2017-10-29T03:07:32.363Z,0
2017-10-29T03:08:12.879Z,0
2017-10-29T03:08:53.414Z,0
2017-10-29T03:09:33.946Z,0
2017-10-29T03:10:14.477Z,0
2017-10-29T03:10:55.036Z,0
2017-10-29T03:11:35.577Z,0
2017-10-29T03:12:16.109Z,0
2017-10-29T03:12:56.634Z,0
2017-10-29T03:13:37.188Z,0
2017-10-29T03:14:17.735Z,0
2017-10-29T03:14:58.271Z,0
2017-10-29T03:15:38.804Z,0
2017-10-29T03:16:19.345Z,0
2017-10-29T03:16:59.884Z,0
2017-10-29T03:17:40.421Z,0
2017-10-29T03:18:20.959Z,0
2017-10-29T03:19:01.489Z,0
2017-10-29T03:19:42.027Z,0
2017-10-29T03:20:22.559Z,0
2017-10-29T03:21:03.095Z,0
2017-10-29T03:21:43.638Z,0
2017-10-29T03:22:24.167Z,0
2017-10-29T03:23:04.710Z,0
2017-10-29T03:23:45.223Z,0
2017-10-29T03:24:25.757Z,0
2017-10-29T03:25:06.298Z,0
2017-10-29T03:25:46.837Z,0
2017-10-29T03:26:27.365Z,0
2017-10-29T03:27:07.897Z,0
2017-10-29T03:27:48.429Z,0
2017-10-29T03:28:28.957Z,0
2017-10-29T03:29:09.499Z,0
2017-10-29T03:29:50.040Z,0
2017-10-29T03:30:30.567Z,0
2017-10-29T03:31:11.101Z,0
2017-10-29T03:31:51.631Z,0
2017-10-29T03:32:32.172Z,0
2017-10-29T03:33:12.709Z,0
2017-10-29T03:33:53.238Z,0
2017-10-29T03:34:33.907Z,0
2017-10-29T03:35:14.479Z,0
2017-10-29T03:35:55.018Z,0
2017-10-29T03:36:35.544Z,0
2017-10-29T03:37:16.087Z,0
2017-10-29T03:37:56.616Z,0
2017-10-29T03:38:37.168Z,0
2017-10-29T03:39:17.704Z,0
2017-10-29T03:39:58.231Z,0
2017-10-29T03:40:38.765Z,0
2017-10-29T03:41:19.298Z,0
2017-10-29T03:41:59.829Z,0
2017-10-29T03:42:40.381Z,0
2017-10-29T03:43:20.900Z,0
2017-10-29T03:44:01.436Z,0
2017-10-29T03:44:41.967Z,0
2017-10-29T03:45:22.503Z,0
2017-10-29T03:46:03.039Z,0
2017-10-29T03:46:43.566Z,0
2017-10-29T03:47:24.103Z,0
2017-10-29T03:48:04.651Z,0
2017-10-29T03:48:45.171Z,0
2017-10-29T03:49:25.720Z,0
2017-10-29T03:50:06.256Z,0
2017-10-29T03:50:46.789Z,0
2017-10-29T03:51:27.329Z,0
2017-10-29T03:52:07.859Z,0
2017-10-29T03:52:48.386Z,0
2017-10-29T03:53:28.923Z,0
2017-10-29T03:54:09.452Z,0
2017-10-29T03:54:49.991Z,0
2017-10-29T03:55:30.520Z,0
2017-10-29T03:56:11.051Z,0
2017-10-29T03:56:51.584Z,0
2017-10-29T03:57:32.125Z,0
2017-10-29T03:58:12.658Z,0
2017-10-29T03:58:53.195Z,0
2017-10-29T03:59:33.726Z,0
2017-10-29T04:00:14.259Z,0
2017-10-29T04:00:54.785Z,0
2017-10-29T04:01:35.332Z,0
2017-10-29T04:02:15.864Z,0
2017-10-29T04:02:56.398Z,0
2017-10-29T04:03:36.927Z,0
2017-10-29T04:04:17.455Z,0
2017-10-29T04:04:57.993Z,0
2017-10-29T04:05:38.533Z,0
2017-10-29T04:06:19.068Z,0
2017-10-29T04:06:59.598Z,0
2017-10-29T04:07:40.129Z,0
2017-10-29T04:08:20.665Z,0
2017-10-29T04:09:01.196Z,0
2017-10-29T04:09:41.735Z,0
2017-10-29T04:10:22.302Z,0
2017-10-29T04:11:02.842Z,0
2017-10-29T04:11:43.380Z,0
2017-10-29T04:12:23.916Z,0
2017-10-29T04:13:04.454Z,0
2017-10-29T04:13:44.984Z,0
2017-10-29T04:14:25.515Z,0
2017-10-29T04:15:06.051Z,0
2017-10-29T04:15:46.582Z,0
2017-10-29T04:16:27.126Z,0
2017-10-29T04:17:07.658Z,0
2017-10-29T04:17:48.180Z,0
2017-10-29T04:18:28.715Z,0
2017-10-29T04:19:09.246Z,0
2017-10-29T04:19:49.780Z,0
2017-10-29T04:20:30.304Z,0
2017-10-29T04:21:10.850Z,0
2017-10-29T04:21:51.377Z,0
2017-10-29T04:22:31.926Z,0
2017-10-29T04:23:12.493Z,0
2017-10-29T04:23:53.021Z,0
2017-10-29T04:24:33.549Z,0
2017-10-29T04:25:14.079Z,0
2017-10-29T04:25:54.628Z,0
2017-10-29T04:26:35.162Z,0
2017-10-29T04:27:15.696Z,0
2017-10-29T04:27:56.245Z,0
2017-10-29T04:28:36.760Z,0
2017-10-29T04:29:17.297Z,0
2017-10-29T04:29:57.865Z,0
2017-10-29T04:30:38.416Z,0
2017-10-29T04:31:18.956Z,0
2017-10-29T04:31:59.470Z,0
2017-10-29T04:32:40.012Z,0
2017-10-29T04:33:20.518Z,0
2017-10-29T04:34:01.057Z,0
2017-10-29T04:34:41.601Z,0
2017-10-29T04:35:22.165Z,0
2017-10-29T04:36:02.735Z,0
2017-10-29T04:36:43.253Z,0
2017-10-29T04:37:23.778Z,0
2017-10-29T04:38:04.317Z,0
2017-10-29T04:38:44.879Z,0
2017-10-29T04:39:25.378Z,0
2017-10-29T04:40:05.934Z,0
2017-10-29T04:40:46.530Z,0
2017-10-29T04:41:27.076Z,0
2017-10-29T04:42:07.593Z,0
2017-10-29T04:42:48.151Z,0
2017-10-29T04:43:28.614Z,0
2017-10-29T04:44:09.134Z,0
2017-10-29T04:44:49.637Z,0
2017-10-29T04:45:30.207Z,0
2017-10-29T04:46:10.755Z,0
2017-10-29T04:46:51.269Z,0
2017-10-29T04:47:31.848Z,0
2017-10-29T04:48:12.436Z,0
2017-10-29T04:48:52.956Z,0
2017-10-29T04:49:33.562Z,0
2017-10-29T04:50:14.004Z,0
2017-10-29T04:50:54.513Z,0
2017-10-29T04:51:35.036Z,0
2017-10-29T04:52:15.558Z,0
2017-10-29T04:52:56.126Z,0
2017-10-29T04:53:36.698Z,0
2017-10-29T04:54:17.168Z,0
2017-10-29T04:54:57.705Z,0
2017-10-29T04:55:38.210Z,0
2017-10-29T04:56:18.723Z,0
2017-10-29T04:56:59.244Z,0
2017-10-29T04:57:39.752Z,0
2017-10-29T04:58:20.269Z,0
2017-10-29T04:59:00.787Z,0
2017-10-29T04:59:41.310Z,0
2017-10-29T05:00:21.841Z,0
2017-10-29T05:01:02.384Z,0
2017-10-29T05:01:42.933Z,0
2017-10-29T05:02:23.464Z,0
2017-10-29T05:03:04.005Z,0
2017-10-29T05:03:44.537Z,0
2017-10-29T05:04:25.074Z,0
2017-10-29T05:05:05.610Z,0
2017-10-29T05:05:46.152Z,0
2017-10-29T05:06:26.755Z,0
2017-10-29T05:07:07.290Z,0
2017-10-29T05:07:47.826Z,0
2017-10-29T05:08:28.360Z,0
2017-10-29T05:09:08.899Z,0
2017-10-29T05:09:49.440Z,0
2017-10-29T05:10:30.006Z,0
2017-10-29T05:11:10.532Z,0
2017-10-29T05:11:50.987Z,0
2017-10-29T05:12:31.508Z,0
2017-10-29T05:13:12.019Z,0
2017-10-29T05:13:52.573Z,0
2017-10-29T05:14:33.059Z,0
2017-10-29T05:15:13.574Z,0
2017-10-29T05:15:54.056Z,0
2017-10-29T05:16:34.566Z,0
2017-10-29T05:17:15.080Z,0
2017-10-29T05:17:55.555Z,0
2017-10-29T05:18:36.095Z,0
2017-10-29T05:19:16.583Z,0
2017-10-29T05:19:57.100Z,0
2017-10-29T05:20:37.723Z,0
2017-10-29T05:21:18.252Z,0
2017-10-29T05:21:58.730Z,0
2017-10-29T05:22:39.248Z,0
2017-10-29T05:23:19.752Z,0
2017-10-29T05:24:00.265Z,0
2017-10-29T05:24:40.836Z,0
2017-10-29T05:25:21.298Z,0
2017-10-29T05:26:01.832Z,0
2017-10-29T05:26:42.301Z,0
2017-10-29T05:27:22.827Z,0
2017-10-29T05:28:03.365Z,0
2017-10-29T05:28:43.872Z,0
2017-10-29T05:29:24.399Z,0
2017-10-29T05:30:04.936Z,0
2017-10-29T05:30:45.501Z,0
2017-10-29T05:31:26.124Z,0
2017-10-29T05:32:06.663Z,0
2017-10-29T05:32:47.169Z,0
2017-10-29T05:33:27.702Z,0
2017-10-29T05:34:08.220Z,0
2017-10-29T05:34:48.748Z,0
2017-10-29T05:35:29.274Z,0
2017-10-29T05:36:09.763Z,0
2017-10-29T05:36:50.277Z,0
2017-10-29T05:37:30.812Z,0
2017-10-29T05:38:11.342Z,0
2017-10-29T05:38:51.920Z,0
2017-10-29T05:39:32.435Z,0
2017-10-29T05:40:12.983Z,0
2017-10-29T05:40:53.548Z,0
2017-10-29T05:41:34.178Z,0
2017-10-29T05:42:14.643Z,0
2017-10-29T05:42:55.192Z,0
2017-10-29T05:43:35.706Z,0
2017-10-29T05:44:16.289Z,0
2017-10-29T05:44:56.788Z,0
2017-10-29T05:45:37.394Z,0
2017-10-29T05:46:17.854Z,0
2017-10-29T05:46:58.370Z,0
2017-10-29T05:47:38.902Z,0
2017-10-29T05:48:19.408Z,0
2017-10-29T05:48:59.954Z,0
2017-10-29T05:49:40.493Z,0
2017-10-29T05:50:20.978Z,0
2017-10-29T05:51:01.587Z,0
2017-10-29T05:51:42.132Z,0
2017-10-29T05:52:22.729Z,0
2017-10-29T05:53:03.253Z,0
2017-10-29T05:53:43.855Z,0
2017-10-29T05:54:24.439Z,4
2017-10-29T05:55:05.012Z,4
2017-10-29T05:55:45.537Z,4
2017-10-29T05:56:26.232Z,0
2017-10-29T05:57:06.749Z,0
2017-10-29T05:57:47.329Z,4
2017-10-29T05:58:27.824Z,0
2017-10-29T05:59:08.324Z,4
2017-10-29T05:59:48.817Z,4
2017-10-29T06:00:29.418Z,8
2017-10-29T06:01:09.901Z,4
2017-10-29T06:01:50.421Z,8
2017-10-29T06:02:30.977Z,8
2017-10-29T06:03:11.519Z,12
2017-10-29T06:03:52.055Z,12
2017-10-29T06:04:32.655Z,12
2017-10-29T06:05:13.181Z,12
2017-10-29T06:05:53.827Z,16
2017-10-29T06:06:34.405Z,16
2017-10-29T06:07:14.945Z,16
2017-10-29T06:07:55.458Z,20
2017-10-29T06:08:36.027Z,24
2017-10-29T06:09:16.539Z,24
2017-10-29T06:09:57.115Z,28
2017-10-29T06:10:37.663Z,28
2017-10-29T06:11:18.165Z,32
2017-10-29T06:11:58.702Z,32
2017-10-29T06:12:39.228Z,36
2017-10-29T06:13:19.723Z,40
2017-10-29T06:14:00.267Z,44
2017-10-29T06:14:40.811Z,44
2017-10-29T06:15:21.304Z,52
2017-10-29T06:16:01.885Z,56
2017-10-29T06:16:42.422Z,60
2017-10-29T06:17:23.014Z,60
2017-10-29T06:18:03.494Z,60
2017-10-29T06:18:44.242Z,60
2017-10-29T06:19:24.700Z,68
2017-10-29T06:20:05.198Z,68
2017-10-29T06:20:45.772Z,72
2017-10-29T06:21:26.341Z,72
2017-10-29T06:22:06.937Z,76
2017-10-29T06:22:47.533Z,84
2017-10-29T06:23:28.084Z,84
2017-10-29T06:24:08.658Z,92
2017-10-29T06:24:49.169Z,96
2017-10-29T06:25:29.697Z,108
2017-10-29T06:26:10.195Z,108
2017-10-29T06:26:50.701Z,120
2017-10-29T06:27:31.215Z,128
2017-10-29T06:28:11.714Z,116
2017-10-29T06:28:52.236Z,132
2017-10-29T06:29:32.778Z,144
2017-10-29T06:30:13.298Z,132
2017-10-29T06:30:53.802Z,116
2017-10-29T06:31:34.289Z,148
2017-10-29T06:32:14.805Z,140
2017-10-29T06:32:55.315Z,144
2017-10-29T06:33:35.859Z,156
2017-10-29T06:34:16.446Z,136
2017-10-29T06:34:56.986Z,128
2017-10-29T06:35:37.557Z,144
2017-10-29T06:36:18.042Z,140
2017-10-29T06:36:58.612Z,128
2017-10-29T06:37:39.105Z,152
2017-10-29T06:38:19.649Z,140
2017-10-29T06:39:00.101Z,180
2017-10-29T06:39:40.675Z,164
2017-10-29T06:40:21.168Z,192
2017-10-29T06:41:01.841Z,172
2017-10-29T06:41:42.382Z,196
2017-10-29T06:42:22.929Z,228
2017-10-29T06:43:03.476Z,236
2017-10-29T06:43:43.953Z,272
2017-10-29T06:44:24.474Z,252
2017-10-29T06:45:05.144Z,236
2017-10-29T06:45:45.629Z,188
2017-10-29T06:46:26.149Z,156
2017-10-29T06:47:06.718Z,152
2017-10-29T06:47:47.219Z,148
2017-10-29T06:48:27.723Z,172
2017-10-29T06:49:08.225Z,188
2017-10-29T06:49:48.810Z,220
2017-10-29T06:50:29.459Z,256
2017-10-29T06:51:09.914Z,220
2017-10-29T06:51:50.346Z,272
2017-10-29T06:52:30.866Z,344
2017-10-29T06:53:11.346Z,320
2017-10-29T06:53:51.894Z,256
2017-10-29T06:54:32.417Z,252
2017-10-29T06:55:12.987Z,232
2017-10-29T06:55:53.534Z,236
2017-10-29T06:56:34.032Z,312
2017-10-29T06:57:14.524Z,320
2017-10-29T06:57:55.067Z,336
2017-10-29T06:58:35.623Z,344
2017-10-29T06:59:16.185Z,388
2017-10-29T06:59:56.803Z,396
2017-10-29T07:00:37.453Z,416
2017-10-29T07:01:17.989Z,524
2017-10-29T07:01:58.472Z,448
2017-10-29T07:02:38.989Z,412
2017-10-29T07:03:19.543Z,436
2017-10-29T07:04:00.132Z,428
2017-10-29T07:04:40.675Z,440
2017-10-29T07:05:21.169Z,460
2017-10-29T07:06:01.707Z,484
2017-10-29T07:06:42.290Z,540
2017-10-29T07:07:22.825Z,708
2017-10-29T07:08:03.406Z,616
2017-10-29T07:08:43.947Z,684
2017-10-29T07:09:24.456Z,796
2017-10-29T07:10:05.001Z,764
2017-10-29T07:10:45.519Z,780
2017-10-29T07:11:26.055Z,928
2017-10-29T07:12:06.606Z,920
2017-10-29T07:12:47.125Z,836
2017-10-29T07:13:27.672Z,768
2017-10-29T07:14:08.231Z,720
2017-10-29T07:14:48.803Z,528
2017-10-29T07:15:29.347Z,480
2017-10-29T07:16:09.930Z,716
2017-10-29T07:16:50.499Z,764
2017-10-29T07:17:31.051Z,776
2017-10-29T07:18:11.609Z,868
2017-10-29T07:18:52.128Z,964
2017-10-29T07:19:32.669Z,1120
2017-10-29T07:20:13.166Z,1120
2017-10-29T07:20:53.720Z,1204
2017-10-29T07:21:34.254Z,1032
2017-10-29T07:22:14.783Z,980
2017-10-29T07:22:55.382Z,988
2017-10-29T07:23:35.851Z,1052
2017-10-29T07:24:16.386Z,1248
2017-10-29T07:24:56.953Z,1324
2017-10-29T07:25:37.524Z,1268
2017-10-29T07:26:18.048Z,1560
2017-10-29T07:26:58.542Z,1920
2017-10-29T07:27:39.064Z,1660
2017-10-29T07:28:19.598Z,1272
2017-10-29T07:29:00.119Z,1372
2017-10-29T07:29:40.690Z,1816
2017-10-29T07:30:21.178Z,1664
2017-10-29T07:31:01.743Z,1400
2017-10-29T07:31:42.379Z,1608
2017-10-29T07:32:22.889Z,1312
2017-10-29T07:33:03.425Z,1840
2017-10-29T07:33:43.916Z,1636
2017-10-29T07:34:24.480Z,1296
2017-10-29T07:35:05.072Z,1504
2017-10-29T07:35:45.633Z,2128
2017-10-29T07:36:26.232Z,1808
2017-10-29T07:37:06.744Z,1132
2017-10-29T07:37:47.270Z,920
2017-10-29T07:38:27.786Z,1348
2017-10-29T07:39:08.277Z,1544
2017-10-29T07:39:48.775Z,1504
2017-10-29T07:40:29.302Z,1244
2017-10-29T07:41:09.798Z,1364
2017-10-29T07:41:50.299Z,1228
2017-10-29T07:42:30.859Z,1132
2017-10-29T07:43:11.411Z,1152
2017-10-29T07:43:51.960Z,1092
2017-10-29T07:44:32.527Z,1268
2017-10-29T07:45:13.081Z,1280
2017-10-29T07:45:53.615Z,1392
2017-10-29T07:46:34.126Z,1580
2017-10-29T07:47:14.655Z,2248
2017-10-29T07:47:55.196Z,2456
2017-10-29T07:48:35.726Z,2624
2017-10-29T07:49:16.274Z,2152
2017-10-29T07:49:56.810Z,2736
2017-10-29T07:50:37.343Z,3388
2017-10-29T07:51:17.849Z,2816
2017-10-29T07:51:58.349Z,2508
2017-10-29T07:52:38.878Z,2744
2017-10-29T07:53:19.396Z,2868
2017-10-29T07:53:59.928Z,2836
2017-10-29T07:54:40.501Z,2888
2017-10-29T07:55:20.993Z,3432
2017-10-29T07:56:01.532Z,2988
2017-10-29T07:56:42.049Z,2508
2017-10-29T07:57:22.605Z,2440
2017-10-29T07:58:03.155Z,2460
2017-10-29T07:58:43.724Z,2524
2017-10-29T07:59:24.338Z,2504
2017-10-29T08:00:04.911Z,2744
2017-10-29T08:00:45.437Z,2820
2017-10-29T08:01:25.985Z,3044
2017-10-29T08:02:06.555Z,3236
2017-10-29T08:02:47.053Z,2916
2017-10-29T08:03:27.607Z,3084
2017-10-29T08:04:08.195Z,3740
2017-10-29T08:04:48.785Z,4172
2017-10-29T08:05:29.453Z,3648
2017-10-29T08:06:09.952Z,3020
2017-10-29T08:06:50.549Z,3304
2017-10-29T08:07:31.151Z,3548
2017-10-29T08:08:11.694Z,3660
2017-10-29T08:08:52.279Z,3336
2017-10-29T08:09:32.823Z,2896
2017-10-29T08:10:13.381Z,3004
2017-10-29T08:10:53.922Z,3908
2017-10-29T08:11:34.648Z,4064
2017-10-29T08:12:15.144Z,4084
2017-10-29T08:12:55.707Z,5488
2017-10-29T08:13:36.207Z,5356
2017-10-29T08:14:16.773Z,4828
2017-10-29T08:14:57.315Z,4888
2017-10-29T08:15:37.864Z,3764
2017-10-29T08:16:18.384Z,3108
2017-10-29T08:16:58.950Z,2712
2017-10-29T08:17:39.529Z,3352
2017-10-29T08:18:20.091Z,4828
2017-10-29T08:19:00.737Z,3460
2017-10-29T08:19:41.274Z,3764
2017-10-29T08:20:21.791Z,3128
2017-10-29T08:21:02.375Z,2776
2017-10-29T08:21:42.990Z,2764
2017-10-29T08:22:23.569Z,3704
2017-10-29T08:23:04.094Z,3496
2017-10-29T08:23:44.666Z,3476
2017-10-29T08:24:25.257Z,4532
2017-10-29T08:25:05.886Z,3676
2017-10-29T08:25:46.345Z,3008
2017-10-29T08:26:26.916Z,3156
2017-10-29T08:27:07.446Z,3948
2017-10-29T08:27:48.070Z,3796
2017-10-29T08:28:28.600Z,4240
2017-10-29T08:29:09.149Z,4188
2017-10-29T08:29:49.911Z,4276
2017-10-29T08:30:30.471Z,5040
2017-10-29T08:31:11.032Z,6856
2017-10-29T08:31:51.560Z,7972
2017-10-29T08:32:32.097Z,10908
2017-10-29T08:33:12.669Z,11544
2017-10-29T08:33:53.232Z,11608
2017-10-29T08:34:33.744Z,3408
2017-10-29T08:35:14.322Z,7488
2017-10-29T08:35:54.884Z,11276
2017-10-29T08:36:35.409Z,12180
2017-10-29T08:37:16.002Z,10244
2017-10-29T08:37:56.485Z,7764
2017-10-29T08:38:36.997Z,3808
2017-10-29T08:39:17.604Z,4880
2017-10-29T08:39:58.184Z,4748
2017-10-29T08:40:38.747Z,6376
2017-10-29T08:41:19.275Z,6168
2017-10-29T08:41:59.853Z,5876
2017-10-29T08:42:40.414Z,7004
2017-10-29T08:43:21.008Z,6044
2017-10-29T08:44:01.507Z,5732
2017-10-29T08:44:42.049Z,6052
2017-10-29T08:45:22.590Z,5804
2017-10-29T08:46:03.151Z,6420
2017-10-29T08:46:43.712Z,7076
2017-10-29T08:47:24.236Z,7060
2017-10-29T08:48:04.769Z,7452
2017-10-29T08:48:45.338Z,7964
2017-10-29T08:49:25.906Z,9404
2017-10-29T08:50:06.460Z,10216
2017-10-29T08:50:47.058Z,10856
2017-10-29T08:51:27.624Z,10260
2017-10-29T08:52:08.133Z,8948
2017-10-29T08:52:48.666Z,7840
2017-10-29T08:53:29.256Z,6820
2017-10-29T08:54:09.703Z,6288
2017-10-29T08:54:50.240Z,6156
2017-10-29T08:55:30.757Z,6136
2017-10-29T08:56:11.343Z,6228
2017-10-29T08:56:51.808Z,6212
2017-10-29T08:57:32.362Z,6312
2017-10-29T08:58:12.866Z,6296
2017-10-29T08:58:53.331Z,6364
2017-10-29T08:59:33.866Z,6444
2017-10-29T09:00:14.331Z,6348
2017-10-29T09:00:54.857Z,6676
2017-10-29T09:01:35.395Z,6828
2017-10-29T09:02:15.851Z,6860
2017-10-29T09:02:56.422Z,6596
2017-10-29T09:03:36.944Z,4040
2017-10-29T09:04:17.455Z,5768
2017-10-29T09:04:57.972Z,6308
2017-10-29T09:05:38.531Z,6348
2017-10-29T09:06:19.052Z,6376
2017-10-29T09:06:59.611Z,6424
2017-10-29T09:07:40.144Z,6524
2017-10-29T09:08:20.623Z,6528
2017-10-29T09:09:01.189Z,6524
2017-10-29T09:09:41.736Z,6564
2017-10-29T09:10:22.266Z,6612
2017-10-29T09:11:02.736Z,6584
2017-10-29T09:11:43.250Z,6596
2017-10-29T09:12:23.797Z,6696
2017-10-29T09:13:04.407Z,6772
2017-10-29T09:13:44.939Z,6976
2017-10-29T09:14:25.461Z,7384
2017-10-29T09:15:05.965Z,7648
2017-10-29T09:15:46.493Z,7952
2017-10-29T09:16:27.043Z,7968
2017-10-29T09:17:07.634Z,8028
2017-10-29T09:17:48.071Z,8824
2017-10-29T09:18:28.585Z,9632
2017-10-29T09:19:09.129Z,10368
2017-10-29T09:19:49.633Z,11200
2017-10-29T09:20:30.215Z,12400
2017-10-29T09:21:10.701Z,14176
2017-10-29T09:21:51.254Z,15212
2017-10-29T09:22:31.778Z,13424
2017-10-29T09:23:12.331Z,17856
2017-10-29T09:23:52.854Z,6684
2017-10-29T09:24:33.434Z,8016
2017-10-29T09:25:14.012Z,13644
2017-10-29T09:25:54.553Z,11696
2017-10-29T09:26:35.207Z,24800
2017-10-29T09:27:15.770Z,7804
2017-10-29T09:27:56.270Z,27168
2017-10-29T09:28:36.789Z,27968
2017-10-29T09:29:17.318Z,26144
2017-10-29T09:29:57.864Z,8344
2017-10-29T09:30:38.396Z,10648
2017-10-29T09:31:18.884Z,11252
2017-10-29T09:31:59.391Z,28768
2017-10-29T09:32:39.876Z,28928
2017-10-29T09:33:20.381Z,10276
2017-10-29T09:34:00.921Z,7672
2017-10-29T09:34:41.470Z,10336
2017-10-29T09:35:21.932Z,10476
2017-10-29T09:36:02.465Z,12020
2017-10-29T09:36:43.098Z,9992
2017-10-29T09:37:23.555Z,6864
2017-10-29T09:38:04.115Z,7836
2017-10-29T09:38:44.639Z,4704
2017-10-29T09:39:25.152Z,4512
2017-10-29T09:40:05.722Z,5596